Time;durP1;ratioP1;P1;durP2;ratioP2;P2;SDS_P1;SDS_P2;PMS_P1;PMS_P2;Temp;Humidity;BMP_temperature;BMP_pressure;BME280_temperature;BME280_humidity;BME280_pressure;Samples;Min_cycle;Max_cycle;Signal;HPM_P1;HPM_P2
2023/04/21 00:00:55;;;;;;;;;;;9.50;68.40;;;;;;4996735;28;19925;-79
2023/04/21 00:03:22;;;;;;;;;;;9.50;68.40;;;;;;4985838;28;20705;-78
2023/04/21 00:05:48;;;;;;;;;;;9.50;68.40;;;;;;5015343;28;19976;-76
2023/04/21 00:08:14;;;;;;;;;;;9.50;68.60;;;;;;5003332;28;20346;-78
2023/04/21 00:10:39;;;;;;;;;;;9.50;68.50;;;;;;5020087;28;19971;-78
2023/04/21 00:13:04;;;;;;;;;;;9.50;68.60;;;;;;5032487;28;19970;-76
2023/04/21 00:15:30;;;;;;;;;;;9.40;68.50;;;;;;5012464;28;19921;-77
2023/04/21 00:17:56;;;;;;;;;;;9.40;68.50;;;;;;5011000;28;19963;-78
2023/04/21 00:20:22;;;;;;;;;;;9.40;68.60;;;;;;5033465;28;19920;-78
2023/04/21 00:22:49;;;;;;;;;;;9.40;68.70;;;;;;5014267;28;20336;-78
2023/04/21 00:25:14;;;;;;;;;;;9.40;68.70;;;;;;5030804;28;19921;-77
2023/04/21 00:27:40;;;;;;;;;;;9.40;68.70;;;;;;5000216;28;20050;-78
2023/04/21 00:30:06;;;;;;;;;;;9.40;68.70;;;;;;5017451;28;19925;-78
2023/04/21 00:32:31;;;;;;;;;;;9.40;68.70;;;;;;5047249;28;20058;-78
2023/04/21 00:34:57;;;;;;;;;;;9.30;68.70;;;;;;5015020;28;19963;-78
2023/04/21 00:37:22;;;;;;;;;;;9.30;68.70;;;;;;5015491;28;20429;-78
2023/04/21 00:39:47;;;;;;;;;;;9.30;68.80;;;;;;5034626;28;19925;-78
2023/04/21 00:42:16;;;;;;;;;;;9.30;68.80;;;;;;5032454;28;19921;-77
2023/04/21 00:44:41;;;;;;;;;;;9.30;68.80;;;;;;5013939;28;19920;-77
2023/04/21 00:47:07;;;;;;;;;;;9.30;68.80;;;;;;4998760;28;19921;-77
2023/04/21 00:49:32;;;;;;;;;;;9.30;68.80;;;;;;5029518;28;19925;-78
2023/04/21 00:51:58;;;;;;;;;;;9.30;68.90;;;;;;5027115;28;19921;-78
2023/04/21 00:54:24;;;;;;;;;;;9.30;68.90;;;;;;5000743;28;19921;-78
2023/04/21 00:56:50;;;;;;;;;;;9.30;68.90;;;;;;5027625;28;19920;-77
2023/04/21 00:59:15;;;;;;;;;;;9.30;69.00;;;;;;5028656;28;19920;-78
2023/04/21 01:01:41;;;;;;;;;;;9.30;69.00;;;;;;5013659;28;19921;-77
2023/04/21 01:04:07;;;;;;;;;;;9.30;69.00;;;;;;5014922;28;19967;-77
2023/04/21 01:06:33;;;;;;;;;;;9.30;69.00;;;;;;5014689;28;19925;-78
2023/04/21 01:08:58;;;;;;;;;;;9.30;69.00;;;;;;5012609;28;19982;-77
2023/04/21 01:11:25;;;;;;;;;;;9.30;69.00;;;;;;5011299;28;20008;-77
2023/04/21 01:13:53;;;;;;;;;;;9.30;69.00;;;;;;5009171;28;20339;-78
2023/04/21 01:16:19;;;;;;;;;;;9.30;69.10;;;;;;5024704;28;20651;-78
2023/04/21 01:18:45;;;;;;;;;;;9.30;69.10;;;;;;5010208;28;19926;-77
2023/04/21 01:21:10;;;;;;;;;;;9.30;69.10;;;;;;5018933;28;19921;-77
2023/04/21 01:23:36;;;;;;;;;;;9.30;69.10;;;;;;5011084;28;20020;-78
2023/04/21 01:26:01;;;;;;;;;;;9.30;69.10;;;;;;5011141;28;19949;-77
2023/04/21 01:28:27;;;;;;;;;;;9.30;69.10;;;;;;5011089;28;19928;-77
2023/04/21 01:30:52;;;;;;;;;;;9.30;69.10;;;;;;5027146;28;20004;-76
2023/04/21 01:33:18;;;;;;;;;;;9.30;69.10;;;;;;5012493;28;19936;-77
2023/04/21 01:35:43;;;;;;;;;;;9.30;69.10;;;;;;5012140;28;19932;-77
2023/04/21 01:38:09;;;;;;;;;;;9.30;69.10;;;;;;5011678;28;19991;-78
2023/04/21 01:40:34;;;;;;;;;;;9.30;69.10;;;;;;5010726;28;19932;-78
2023/04/21 01:43:00;;;;;;;;;;;9.40;69.20;;;;;;5012616;28;19921;-77
2023/04/21 01:45:25;;;;;;;;;;;9.40;69.10;;;;;;4996914;28;19921;-77
2023/04/21 01:47:51;;;;;;;;;;;9.40;69.10;;;;;;5009124;28;19921;-77
2023/04/21 01:50:17;;;;;;;;;;;9.40;69.10;;;;;;5012143;28;19996;-77
2023/04/21 01:52:42;;;;;;;;;;;9.40;69.20;;;;;;5012920;28;19987;-77
2023/04/21 01:55:08;;;;;;;;;;;9.40;69.20;;;;;;5006562;28;20414;-77
2023/04/21 01:57:33;;;;;;;;;;;9.40;69.20;;;;;;5022967;28;19926;-77
2023/04/21 01:59:59;;;;;;;;;;;9.30;69.10;;;;;;5008133;28;20060;-77
2023/04/21 02:02:24;;;;;;;;;;;9.30;69.20;;;;;;5008688;28;20616;-78
2023/04/21 02:04:50;;;;;;;;;;;9.30;69.20;;;;;;5011885;28;20002;-77
2023/04/21 02:07:15;;;;;;;;;;;9.30;69.30;;;;;;5008770;28;20091;-78
2023/04/21 02:09:41;;;;;;;;;;;9.30;69.30;;;;;;5012117;28;20774;-78
2023/04/21 02:12:06;;;;;;;;;;;9.30;69.30;;;;;;5001009;28;19975;-78
2023/04/21 02:14:32;;;;;;;;;;;9.20;69.30;;;;;;5015096;28;20278;-77
2023/04/21 02:16:57;;;;;;;;;;;9.20;69.30;;;;;;5029772;28;19948;-77
2023/04/21 02:19:23;;;;;;;;;;;9.20;69.30;;;;;;5030102;28;19945;-77
2023/04/21 02:21:48;;;;;;;;;;;9.20;69.30;;;;;;5028536;28;19918;-77
2023/04/21 02:24:14;;;;;;;;;;;9.20;69.40;;;;;;5012532;28;20303;-77
2023/04/21 02:26:39;;;;;;;;;;;9.20;69.40;;;;;;5025011;28;19963;-78
2023/04/21 02:29:05;;;;;;;;;;;9.20;69.40;;;;;;5012945;28;19920;-77
2023/04/21 02:31:31;;;;;;;;;;;9.20;69.50;;;;;;5014701;28;20509;-78
2023/04/21 02:33:57;;;;;;;;;;;9.20;69.50;;;;;;5011158;28;19921;-77
2023/04/21 02:36:23;;;;;;;;;;;9.20;69.50;;;;;;5014053;28;20404;-77
2023/04/21 02:38:48;;;;;;;;;;;9.20;69.50;;;;;;5033533;28;19925;-77
2023/04/21 02:41:14;;;;;;;;;;;9.20;69.50;;;;;;5033177;28;19920;-78
2023/04/21 02:43:39;;;;;;;;;;;9.20;69.50;;;;;;5016329;28;19929;-77
2023/04/21 02:46:06;;;;;;;;;;;9.20;69.50;;;;;;5001861;28;20761;-78
2023/04/21 02:48:31;;;;;;;;;;;9.20;69.60;;;;;;5034652;28;19990;-77
2023/04/21 02:50:56;;;;;;;;;;;9.20;69.60;;;;;;5017610;28;20525;-77
2023/04/21 02:53:22;;;;;;;;;;;9.20;69.60;;;;;;5032927;28;20016;-77
2023/04/21 02:55:47;;;;;;;;;;;9.20;69.60;;;;;;5032509;28;19921;-77
2023/04/21 02:58:13;;;;;;;;;;;9.20;69.60;;;;;;5014526;28;19995;-77
2023/04/21 03:00:38;;;;;;;;;;;9.20;69.60;;;;;;5037644;28;19925;-77
2023/04/21 03:03:04;;;;;;;;;;;9.20;69.60;;;;;;5019686;28;20058;-77
2023/04/21 03:05:29;;;;;;;;;;;9.20;69.60;;;;;;5018567;28;20493;-77
2023/04/21 03:07:55;;;;;;;;;;;9.20;69.60;;;;;;5035395;28;19925;-78
2023/04/21 03:10:20;;;;;;;;;;;9.20;69.60;;;;;;5013716;28;19957;-76
2023/04/21 03:12:46;;;;;;;;;;;9.20;69.70;;;;;;5014263;28;19921;-77
2023/04/21 03:15:13;;;;;;;;;;;9.20;69.60;;;;;;5010813;28;20007;-78
2023/04/21 03:17:41;;;;;;;;;;;9.20;69.70;;;;;;4998926;28;20353;-77
2023/04/21 03:20:07;;;;;;;;;;;9.20;69.70;;;;;;5013997;28;19933;-77
2023/04/21 03:22:35;;;;;;;;;;;9.20;69.80;;;;;;5013555;28;20026;-78
2023/04/21 03:25:01;;;;;;;;;;;9.20;69.70;;;;;;5007452;28;19921;-77
2023/04/21 03:27:26;;;;;;;;;;;9.20;69.70;;;;;;4999289;28;19925;-78
2023/04/21 03:29:52;;;;;;;;;;;9.20;69.70;;;;;;5012241;28;19921;-77
2023/04/21 03:32:17;;;;;;;;;;;9.20;69.70;;;;;;5011025;28;19921;-78
2023/04/21 03:34:42;;;;;;;;;;;9.20;69.80;;;;;;5028579;28;20035;-78
2023/04/21 03:37:08;;;;;;;;;;;9.20;69.70;;;;;;5015239;28;19929;-77
2023/04/21 03:39:33;;;;;;;;;;;9.20;69.80;;;;;;5014266;28;19921;-77
2023/04/21 03:42:00;;;;;;;;;;;9.20;69.80;;;;;;5024898;28;19974;-77
2023/04/21 03:44:26;;;;;;;;;;;9.20;69.80;;;;;;5013701;28;19921;-77
2023/04/21 03:46:52;;;;;;;;;;;9.20;69.80;;;;;;5012742;28;20410;-77
2023/04/21 03:49:17;;;;;;;;;;;9.20;69.80;;;;;;5017059;28;19926;-77
2023/04/21 03:51:43;;;;;;;;;;;9.20;69.80;;;;;;5028906;28;19986;-79
2023/04/21 03:54:08;;;;;;;;;;;9.20;69.80;;;;;;5011398;28;22242;-77
2023/04/21 03:56:34;;;;;;;;;;;9.20;69.80;;;;;;5014419;28;19921;-77
2023/04/21 03:58:59;;;;;;;;;;;9.20;69.80;;;;;;5011382;28;19933;-78
2023/04/21 04:01:25;;;;;;;;;;;9.20;69.80;;;;;;5007386;28;19968;-78
2023/04/21 04:03:50;;;;;;;;;;;9.20;69.70;;;;;;4999465;28;19921;-77
2023/04/21 04:06:16;;;;;;;;;;;9.20;69.70;;;;;;5007880;28;19921;-78
2023/04/21 04:08:41;;;;;;;;;;;9.20;69.80;;;;;;5014405;28;19921;-78
2023/04/21 04:11:07;;;;;;;;;;;9.20;69.80;;;;;;5027993;28;19982;-78
2023/04/21 04:13:32;;;;;;;;;;;9.30;69.90;;;;;;5028530;28;19962;-78
2023/04/21 04:15:58;;;;;;;;;;;9.30;69.80;;;;;;5032437;28;19920;-77
2023/04/21 04:18:23;;;;;;;;;;;9.30;69.80;;;;;;5018388;28;19928;-78
2023/04/21 04:20:49;;;;;;;;;;;9.30;69.90;;;;;;5030688;28;20701;-78
2023/04/21 04:23:14;;;;;;;;;;;9.30;69.90;;;;;;5013139;28;20410;-78
2023/04/21 04:25:41;;;;;;;;;;;9.20;69.80;;;;;;5027646;28;19951;-78
2023/04/21 04:28:08;;;;;;;;;;;9.20;69.80;;;;;;5031175;28;19925;-78
2023/04/21 04:30:34;;;;;;;;;;;9.20;69.80;;;;;;5031556;28;19925;-78
2023/04/21 04:32:59;;;;;;;;;;;9.30;69.90;;;;;;5026374;28;19917;-78
2023/04/21 04:35:25;;;;;;;;;;;9.30;69.90;;;;;;5032364;28;19921;-77
2023/04/21 04:37:51;;;;;;;;;;;9.30;69.90;;;;;;5031128;28;19997;-77
2023/04/21 04:40:16;;;;;;;;;;;9.30;69.90;;;;;;5013947;28;20390;-78
2023/04/21 04:42:42;;;;;;;;;;;9.30;69.90;;;;;;5011788;28;19952;-77
2023/04/21 04:45:08;;;;;;;;;;;9.30;70.00;;;;;;5014194;28;20311;-78
2023/04/21 04:47:36;;;;;;;;;;;9.30;69.90;;;;;;5016665;28;19921;-77
2023/04/21 04:50:02;;;;;;;;;;;9.30;69.90;;;;;;5012749;28;20357;-78
2023/04/21 04:52:27;;;;;;;;;;;9.30;69.90;;;;;;5002035;28;19921;-77
2023/04/21 04:54:53;;;;;;;;;;;9.30;69.90;;;;;;5012321;28;19921;-77
2023/04/21 04:57:18;;;;;;;;;;;9.30;70.00;;;;;;5016012;28;20812;-78
2023/04/21 04:59:45;;;;;;;;;;;9.30;69.90;;;;;;5015017;28;19955;-78
2023/04/21 05:02:11;;;;;;;;;;;9.30;70.00;;;;;;4997705;28;19928;-77
2023/04/21 05:04:36;;;;;;;;;;;9.30;69.90;;;;;;5030162;28;19970;-78
2023/04/21 05:07:02;;;;;;;;;;;9.30;69.90;;;;;;5029676;28;19925;-77
2023/04/21 05:09:27;;;;;;;;;;;9.40;70.00;;;;;;5000992;28;19928;-77
2023/04/21 05:11:53;;;;;;;;;;;9.40;70.00;;;;;;4995467;28;20466;-78
2023/04/21 05:14:18;;;;;;;;;;;9.40;69.90;;;;;;5008675;28;19925;-78
2023/04/21 05:16:43;;;;;;;;;;;9.40;69.90;;;;;;5012718;28;19924;-78
2023/04/21 05:19:09;;;;;;;;;;;9.50;70.00;;;;;;5008741;28;19929;-77
2023/04/21 05:21:35;;;;;;;;;;;9.50;70.00;;;;;;5011856;28;19925;-77
2023/04/21 05:24:00;;;;;;;;;;;9.50;70.00;;;;;;4996191;28;20645;-78
2023/04/21 05:26:26;;;;;;;;;;;9.50;69.90;;;;;;5009291;28;19921;-77
2023/04/21 05:28:52;;;;;;;;;;;9.50;69.90;;;;;;5011200;28;20334;-77
2023/04/21 05:31:17;;;;;;;;;;;9.50;69.90;;;;;;4995261;28;19921;-77
2023/04/21 05:33:43;;;;;;;;;;;9.60;70.00;;;;;;5009867;28;19936;-78
2023/04/21 05:36:08;;;;;;;;;;;9.60;70.00;;;;;;5012890;28;21153;-78
2023/04/21 05:38:34;;;;;;;;;;;9.60;69.90;;;;;;5012353;28;20036;-78
2023/04/21 05:41:00;;;;;;;;;;;9.70;69.90;;;;;;5007508;28;20004;-79
2023/04/21 05:43:26;;;;;;;;;;;9.70;69.90;;;;;;5023583;28;19927;-78
2023/04/21 05:45:51;;;;;;;;;;;9.70;69.90;;;;;;5008884;28;20020;-77
2023/04/21 05:48:16;;;;;;;;;;;9.70;69.90;;;;;;5007609;28;19925;-78
2023/04/21 05:50:42;;;;;;;;;;;9.80;69.90;;;;;;5008220;28;20321;-78
2023/04/21 05:53:07;;;;;;;;;;;9.80;69.90;;;;;;4996838;28;19975;-78
2023/04/21 05:55:33;;;;;;;;;;;9.80;69.90;;;;;;5010042;28;19921;-77
2023/04/21 05:57:59;;;;;;;;;;;9.80;69.90;;;;;;5008685;28;19936;-78
2023/04/21 06:00:24;;;;;;;;;;;9.80;69.90;;;;;;5009212;28;19941;-77
2023/04/21 06:02:50;;;;;;;;;;;9.80;69.90;;;;;;5011608;28;19925;-75
2023/04/21 06:05:15;;;;;;;;;;;9.90;69.90;;;;;;5009614;28;19921;-78
2023/04/21 06:07:41;;;;;;;;;;;9.90;69.90;;;;;;5022435;28;20406;-78
2023/04/21 06:10:06;;;;;;;;;;;9.90;69.90;;;;;;5018195;28;19935;-78
2023/04/21 06:12:32;;;;;;;;;;;9.90;69.80;;;;;;5010877;28;20003;-78
2023/04/21 06:14:58;;;;;;;;;;;9.90;69.80;;;;;;5043008;28;19928;-78
2023/04/21 06:17:23;;;;;;;;;;;10.00;69.90;;;;;;5046940;28;19935;-78
2023/04/21 06:19:52;;;;;;;;;;;10.00;69.90;;;;;;5029987;28;19955;-78
2023/04/21 06:22:23;;;;;;;;;;;10.00;69.90;;;;;;5016187;28;19921;-78
2023/04/21 06:24:49;;;;;;;;;;;10.00;69.90;;;;;;5013310;28;19974;-78
2023/04/21 06:27:14;;;;;;;;;;;10.00;69.90;;;;;;5025387;28;19921;-77
2023/04/21 06:29:41;;;;;;;;;;;10.10;69.90;;;;;;5019776;28;20394;-77
2023/04/21 06:32:06;;;;;;;;;;;10.10;69.90;;;;;;5011268;28;20381;-78
2023/04/21 06:34:32;;;;;;;;;;;10.10;69.90;;;;;;5009349;28;19921;-78
2023/04/21 06:36:57;;;;;;;;;;;10.20;69.90;;;;;;5011704;28;19925;-78
2023/04/21 06:39:23;;;;;;;;;;;10.20;70.00;;;;;;5040716;28;20546;-78
2023/04/21 06:41:48;;;;;;;;;;;10.20;69.90;;;;;;5029723;28;19925;-78
2023/04/21 06:44:14;;;;;;;;;;;10.20;69.90;;;;;;5012567;28;21239;-77
2023/04/21 06:46:40;;;;;;;;;;;10.20;69.80;;;;;;5021797;28;19968;-77
2023/04/21 06:49:08;;;;;;;;;;;10.30;69.90;;;;;;5024358;28;19925;-77
2023/04/21 06:51:33;;;;;;;;;;;10.30;69.90;;;;;;5015033;28;19921;-75
2023/04/21 06:54:00;;;;;;;;;;;10.40;69.90;;;;;;5030473;28;19974;-78
2023/04/21 06:56:28;;;;;;;;;;;10.40;69.90;;;;;;5029740;28;19940;-78
2023/04/21 06:58:54;;;;;;;;;;;10.40;69.80;;;;;;5044368;28;19924;-78
2023/04/21 07:01:19;;;;;;;;;;;10.50;69.80;;;;;;5011608;28;19928;-78
2023/04/21 07:03:45;;;;;;;;;;;10.50;69.80;;;;;;5013249;28;20413;-77
2023/04/21 07:06:11;;;;;;;;;;;10.50;69.70;;;;;;5041983;28;19925;-78
2023/04/21 07:08:36;;;;;;;;;;;10.60;69.80;;;;;;5022677;28;20563;-78
2023/04/21 07:11:02;;;;;;;;;;;10.60;69.70;;;;;;5011619;28;19933;-78
2023/04/21 07:13:27;;;;;;;;;;;10.70;69.70;;;;;;5008525;28;19927;-77
2023/04/21 07:15:53;;;;;;;;;;;10.80;69.80;;;;;;5024160;28;20308;-78
2023/04/21 07:18:18;;;;;;;;;;;10.80;69.70;;;;;;4995269;28;20016;-78
2023/04/21 07:20:44;;;;;;;;;;;10.80;69.60;;;;;;5008358;28;20008;-77
2023/04/21 07:23:09;;;;;;;;;;;10.90;69.60;;;;;;5011002;28;19921;-77
2023/04/21 07:25:35;;;;;;;;;;;11.00;69.60;;;;;;5010873;28;20439;-76
2023/04/21 07:28:02;;;;;;;;;;;11.10;69.60;;;;;;4995993;28;19925;-75
2023/04/21 07:30:28;;;;;;;;;;;11.10;69.50;;;;;;5005616;28;19929;-76
2023/04/21 07:32:53;;;;;;;;;;;11.20;69.50;;;;;;5028496;28;20065;-76
2023/04/21 07:35:19;;;;;;;;;;;11.30;69.50;;;;;;5028065;28;20519;-76
2023/04/21 07:37:44;;;;;;;;;;;11.40;69.50;;;;;;5014270;28;19933;-76
2023/04/21 07:40:10;;;;;;;;;;;11.60;69.50;;;;;;5029689;28;20055;-76
2023/04/21 07:42:36;;;;;;;;;;;11.70;69.40;;;;;;5012077;28;20036;-76
2023/04/21 07:45:02;;;;;;;;;;;11.90;69.30;;;;;;5015046;28;19995;-76
2023/04/21 07:47:27;;;;;;;;;;;12.00;69.10;;;;;;5007542;28;19975;-78
2023/04/21 07:49:53;;;;;;;;;;;12.20;69.00;;;;;;5013281;28;19930;-77
2023/04/21 07:52:18;;;;;;;;;;;12.20;68.80;;;;;;5012291;28;19933;-78
2023/04/21 07:54:44;;;;;;;;;;;12.30;68.80;;;;;;5011387;28;19953;-77
2023/04/21 07:57:09;;;;;;;;;;;12.40;68.80;;;;;;5028129;28;20225;-78
2023/04/21 07:59:35;;;;;;;;;;;12.50;68.80;;;;;;5014962;28;19988;-79
2023/04/21 08:02:00;;;;;;;;;;;12.70;68.80;;;;;;5012355;28;20030;-77
2023/04/21 08:04:26;;;;;;;;;;;12.90;68.70;;;;;;5013536;28;19953;-78
2023/04/21 08:06:51;;;;;;;;;;;13.00;68.60;;;;;;5011134;28;19921;-78
2023/04/21 08:09:17;;;;;;;;;;;13.20;68.40;;;;;;4995158;28;20004;-78
2023/04/21 08:11:42;;;;;;;;;;;13.30;68.30;;;;;;4995584;28;19933;-78
2023/04/21 08:14:11;;;;;;;;;;;13.40;68.10;;;;;;4994753;28;20040;-79
2023/04/21 08:16:37;;;;;;;;;;;13.60;68.20;;;;;;5010979;28;19921;-77
2023/04/21 08:19:02;;;;;;;;;;;13.70;68.00;;;;;;4998197;28;19924;-78
2023/04/21 08:21:28;;;;;;;;;;;13.90;67.90;;;;;;5013780;28;20611;-78
2023/04/21 08:23:54;;;;;;;;;;;14.10;67.80;;;;;;4997705;28;19951;-78
2023/04/21 08:26:24;;;;;;;;;;;14.20;67.70;;;;;;5012674;28;20613;-78
2023/04/21 08:28:50;;;;;;;;;;;14.30;67.60;;;;;;5013276;28;19983;-77
2023/04/21 08:31:16;;;;;;;;;;;14.40;67.40;;;;;;4994541;28;19968;-78
2023/04/21 08:33:42;;;;;;;;;;;14.40;67.40;;;;;;5025059;28;20012;-78
2023/04/21 08:36:07;;;;;;;;;;;14.50;67.30;;;;;;4991900;28;19929;-78
2023/04/21 08:38:34;;;;;;;;;;;14.60;67.30;;;;;;4993654;28;19925;-78
2023/04/21 08:40:59;;;;;;;;;;;14.60;67.30;;;;;;5014485;28;19927;-78
2023/04/21 08:43:25;;;;;;;;;;;14.60;67.20;;;;;;5012817;28;19928;-77
2023/04/21 08:45:52;;;;;;;;;;;14.70;67.30;;;;;;4997047;28;19983;-77
2023/04/21 08:48:20;;;;;;;;;;;14.70;67.30;;;;;;4996549;28;19917;-78
2023/04/21 08:50:45;;;;;;;;;;;14.80;67.20;;;;;;4995562;28;21041;-78
2023/04/21 08:53:11;;;;;;;;;;;14.80;67.20;;;;;;5027033;28;20012;-77
2023/04/21 08:55:36;;;;;;;;;;;14.90;67.20;;;;;;4984261;28;19925;-78
2023/04/21 08:58:05;;;;;;;;;;;14.90;67.20;;;;;;4983021;28;20008;-78
2023/04/21 09:00:31;;;;;;;;;;;14.90;67.20;;;;;;4992475;28;19921;-77
2023/04/21 09:03:00;;;;;;;;;;;15.00;67.20;;;;;;5008830;28;19929;-78
2023/04/21 09:05:26;;;;;;;;;;;15.00;67.10;;;;;;5026347;28;19925;-78
2023/04/21 09:07:52;;;;;;;;;;;15.10;67.10;;;;;;4994238;28;19921;-77
2023/04/21 09:10:22;;;;;;;;;;;15.20;67.00;;;;;;5014298;28;19925;-78
2023/04/21 09:12:51;;;;;;;;;;;15.20;66.90;;;;;;4994829;28;19929;-78
2023/04/21 09:15:17;;;;;;;;;;;15.20;66.80;;;;;;4997330;28;20644;-78
2023/04/21 09:17:43;;;;;;;;;;;15.30;66.80;;;;;;5010214;28;20068;-77
2023/04/21 09:20:11;;;;;;;;;;;15.40;66.90;;;;;;4995466;28;20020;-78
2023/04/21 09:22:37;;;;;;;;;;;15.40;66.80;;;;;;5014009;28;20008;-77
2023/04/21 09:25:02;;;;;;;;;;;15.50;66.70;;;;;;5013213;28;20529;-78
2023/04/21 09:27:28;;;;;;;;;;;15.50;66.60;;;;;;4981603;28;19921;-77
2023/04/21 09:29:53;;;;;;;;;;;15.60;66.60;;;;;;4995132;28;20239;-77
2023/04/21 09:32:19;;;;;;;;;;;15.60;66.50;;;;;;4997047;28;19921;-78
2023/04/21 09:34:45;;;;;;;;;;;15.60;66.50;;;;;;5010075;28;19921;-78
2023/04/21 09:37:11;;;;;;;;;;;15.60;66.50;;;;;;4996857;28;19921;-77
2023/04/21 09:39:36;;;;;;;;;;;15.70;66.50;;;;;;4998257;28;20134;-76
2023/04/21 09:42:02;;;;;;;;;;;15.70;66.40;;;;;;5010940;28;20339;-77
2023/04/21 09:44:27;;;;;;;;;;;15.80;66.40;;;;;;4994322;28;19929;-77
2023/04/21 09:46:53;;;;;;;;;;;15.80;66.30;;;;;;4998093;28;19960;-77
2023/04/21 09:49:20;;;;;;;;;;;15.90;66.30;;;;;;4997396;28;19917;-76
2023/04/21 09:51:45;;;;;;;;;;;16.00;66.30;;;;;;4995905;28;20418;-77
2023/04/21 09:54:18;;;;;;;;;;;16.10;66.20;;;;;;4982617;28;19917;-76
2023/04/21 09:56:43;;;;;;;;;;;16.20;66.10;;;;;;5005249;28;19925;-77
2023/04/21 09:59:10;;;;;;;;;;;16.20;66.00;;;;;;5012153;28;19929;-77
2023/04/21 10:01:37;;;;;;;;;;;16.30;65.90;;;;;;5024320;28;19972;-76
2023/04/21 10:04:03;;;;;;;;;;;16.30;65.90;;;;;;4992432;28;19964;-76
2023/04/21 10:06:28;;;;;;;;;;;16.30;65.90;;;;;;4994339;28;20468;-76
2023/04/21 10:08:55;;;;;;;;;;;16.20;65.80;;;;;;4993915;28;19936;-77
2023/04/21 10:11:21;;;;;;;;;;;16.30;66.00;;;;;;5005456;28;19937;-76
2023/04/21 10:13:46;;;;;;;;;;;16.30;65.90;;;;;;5011281;28;19917;-76
2023/04/21 10:16:12;;;;;;;;;;;16.30;65.90;;;;;;5024816;28;19921;-76
2023/04/21 10:18:41;;;;;;;;;;;16.40;65.90;;;;;;5023139;28;19932;-77
2023/04/21 10:21:07;;;;;;;;;;;16.40;65.90;;;;;;5008636;28;19983;-76
2023/04/21 10:23:36;;;;;;;;;;;16.50;65.90;;;;;;5007930;28;19921;-77
2023/04/21 10:26:12;;;;;;;;;;;16.60;65.80;;;;;;5006585;28;19925;-76
2023/04/21 10:28:41;;;;;;;;;;;16.70;65.70;;;;;;5008396;28;19921;-76
2023/04/21 10:31:25;;;;;;;;;;;16.80;65.60;;;;;;5010163;28;19925;-77
2023/04/21 10:34:00;;;;;;;;;;;16.90;65.70;;;;;;5022375;28;19974;-76
2023/04/21 10:36:26;;;;;;;;;;;16.90;65.50;;;;;;5009304;28;20347;-76
2023/04/21 10:38:54;;;;;;;;;;;17.00;65.40;;;;;;5011024;28;19933;-76
2023/04/21 10:41:28;;;;;;;;;;;17.20;65.40;;;;;;5009854;28;19921;-78
2023/04/21 10:44:00;;;;;;;;;;;17.30;65.20;;;;;;5009134;28;20509;-76
2023/04/21 10:46:35;;;;;;;;;;;17.50;65.10;;;;;;5008654;28;20011;-76
2023/04/21 10:49:05;;;;;;;;;;;17.60;64.90;;;;;;5025315;28;19928;-76
2023/04/21 10:51:31;;;;;;;;;;;17.80;64.90;;;;;;5008992;28;19932;-76
2023/04/21 10:53:57;;;;;;;;;;;18.10;64.70;;;;;;5010905;28;20707;-76
2023/04/21 10:56:22;;;;;;;;;;;18.20;64.50;;;;;;5012766;28;19943;-76
2023/04/21 10:58:48;;;;;;;;;;;18.30;64.40;;;;;;5008772;28;20035;-76
2023/04/21 11:01:13;;;;;;;;;;;18.50;64.30;;;;;;5010984;28;19982;-77
2023/04/21 11:03:39;;;;;;;;;;;18.80;64.10;;;;;;5027685;28;19964;-76
2023/04/21 11:06:14;;;;;;;;;;;19.00;63.90;;;;;;5016288;28;19921;-76
2023/04/21 11:08:55;;;;;;;;;;;19.20;63.70;;;;;;5009600;28;20570;-76
2023/04/21 11:11:22;;;;;;;;;;;19.40;63.40;;;;;;4986272;28;19933;-77
2023/04/21 11:13:48;;;;;;;;;;;19.50;63.20;;;;;;5010679;28;19928;-76
2023/04/21 11:16:13;;;;;;;;;;;19.70;63.20;;;;;;5013464;28;20355;-75
2023/04/21 11:18:42;;;;;;;;;;;19.80;62.90;;;;;;5017701;28;19932;-76
2023/04/21 11:21:09;;;;;;;;;;;20.00;62.80;;;;;;5010713;28;19921;-77
2023/04/21 11:23:35;;;;;;;;;;;20.20;62.70;;;;;;5011017;28;20318;-76
2023/04/21 11:26:00;;;;;;;;;;;20.40;62.40;;;;;;5001621;28;19921;-75
2023/04/21 11:28:26;;;;;;;;;;;20.60;62.20;;;;;;5010552;28;19979;-76
2023/04/21 11:30:51;;;;;;;;;;;20.80;62.00;;;;;;5026206;28;20415;-76
2023/04/21 11:33:16;;;;;;;;;;;20.90;61.90;;;;;;5012436;28;20068;-76
2023/04/21 11:35:42;;;;;;;;;;;21.10;61.70;;;;;;5010154;28;19925;-76
2023/04/21 11:38:07;;;;;;;;;;;21.20;61.60;;;;;;5012792;28;20417;-77
2023/04/21 11:40:48;;;;;;;;;;;21.20;61.60;;;;;;5012511;28;20621;-76
2023/04/21 11:43:14;;;;;;;;;;;21.30;61.40;;;;;;5007322;28;19925;-76
2023/04/21 11:45:40;;;;;;;;;;;21.50;61.30;;;;;;5010686;28;19979;-76
2023/04/21 11:48:15;;;;;;;;;;;21.60;61.20;;;;;;5010237;28;19929;-76
2023/04/21 11:50:45;;;;;;;;;;;21.70;61.10;;;;;;5028865;28;19968;-76
2023/04/21 11:53:10;;;;;;;;;;;21.90;61.10;;;;;;5011921;28;19921;-76
2023/04/21 11:55:36;;;;;;;;;;;22.20;60.90;;;;;;5010564;28;19924;-76
2023/04/21 11:58:02;;;;;;;;;;;22.40;60.60;;;;;;5013606;28;19925;-77
2023/04/21 12:00:28;;;;;;;;;;;22.70;60.40;;;;;;5026782;28;19979;-76
2023/04/21 12:02:54;;;;;;;;;;;22.80;60.00;;;;;;5023028;28;20026;-76
2023/04/21 12:05:20;;;;;;;;;;;23.00;59.90;;;;;;5011502;28;20387;-76
2023/04/21 12:07:47;;;;;;;;;;;23.20;59.80;;;;;;4993930;28;19941;-76
2023/04/21 12:10:16;;;;;;;;;;;23.40;59.60;;;;;;5013164;28;20438;-76
2023/04/21 12:12:42;;;;;;;;;;;23.60;59.40;;;;;;5009790;28;20314;-76
2023/04/21 12:15:08;;;;;;;;;;;23.70;59.00;;;;;;5017065;28;19928;-77
2023/04/21 12:17:42;;;;;;;;;;;23.80;59.10;;;;;;5010367;28;19925;-76
2023/04/21 12:20:08;;;;;;;;;;;24.00;59.00;;;;;;5030177;28;19982;-76
2023/04/21 12:22:33;;;;;;;;;;;24.20;58.90;;;;;;5013353;28;20462;-76
2023/04/21 12:24:59;;;;;;;;;;;24.40;58.60;;;;;;5025241;28;19925;-77
2023/04/21 12:27:25;;;;;;;;;;;24.60;58.50;;;;;;5013192;28;19922;-77
2023/04/21 12:29:51;;;;;;;;;;;24.80;58.30;;;;;;5013150;28;19936;-76
2023/04/21 12:32:16;;;;;;;;;;;25.00;58.30;;;;;;5025014;28;19925;-76
2023/04/21 12:34:42;;;;;;;;;;;25.10;58.00;;;;;;5008372;28;20016;-77
2023/04/21 12:37:07;;;;;;;;;;;25.10;57.80;;;;;;5013574;28;19928;-76
2023/04/21 12:39:33;;;;;;;;;;;25.10;57.80;;;;;;5010229;28;19953;-76
2023/04/21 12:41:58;;;;;;;;;;;25.20;57.90;;;;;;5014120;28;19925;-76
2023/04/21 12:44:24;;;;;;;;;;;25.30;57.80;;;;;;5025181;28;19992;-76
2023/04/21 12:46:50;;;;;;;;;;;25.40;57.80;;;;;;5011210;28;19921;-76
2023/04/21 12:49:16;;;;;;;;;;;25.50;57.80;;;;;;5013858;28;19960;-78
2023/04/21 12:51:42;;;;;;;;;;;25.50;57.60;;;;;;4994320;28;19929;-77
2023/04/21 12:54:07;;;;;;;;;;;25.60;57.60;;;;;;5009728;28;19928;-77
2023/04/21 12:56:33;;;;;;;;;;;25.60;57.50;;;;;;5011225;28;20549;-76
2023/04/21 12:58:58;;;;;;;;;;;25.50;57.50;;;;;;5012632;28;20505;-77
2023/04/21 13:01:24;;;;;;;;;;;25.50;57.50;;;;;;5028954;28;19921;-76
2023/04/21 13:03:49;;;;;;;;;;;25.50;57.60;;;;;;5010878;28;19925;-77
2023/04/21 13:06:15;;;;;;;;;;;25.70;57.60;;;;;;4998025;28;19921;-77
2023/04/21 13:08:40;;;;;;;;;;;25.70;57.50;;;;;;5013024;28;20367;-77
2023/04/21 13:11:05;;;;;;;;;;;25.60;57.40;;;;;;5014389;28;19940;-78
2023/04/21 13:13:31;;;;;;;;;;;25.70;57.50;;;;;;5025717;28;19927;-79
2023/04/21 13:15:56;;;;;;;;;;;25.80;57.60;;;;;;5021879;28;19971;-76
2023/04/21 13:18:22;;;;;;;;;;;25.90;57.50;;;;;;5026948;28;19929;-77
2023/04/21 13:20:48;;;;;;;;;;;26.00;57.30;;;;;;5012911;28;19921;-78
2023/04/21 13:23:13;;;;;;;;;;;26.10;57.20;;;;;;5011406;28;19928;-76
2023/04/21 13:25:39;;;;;;;;;;;26.10;57.00;;;;;;5013500;28;19949;-76
2023/04/21 13:28:06;;;;;;;;;;;26.10;57.00;;;;;;5011024;28;19992;-77
2023/04/21 13:30:32;;;;;;;;;;;26.10;57.10;;;;;;5012841;28;19921;-77
2023/04/21 13:32:57;;;;;;;;;;;26.20;57.20;;;;;;4992738;28;20284;-77
2023/04/21 13:35:22;;;;;;;;;;;26.30;57.10;;;;;;4996382;28;19925;-77
2023/04/21 13:37:48;;;;;;;;;;;26.30;57.00;;;;;;5010242;28;19925;-77
2023/04/21 13:40:14;;;;;;;;;;;26.50;56.70;;;;;;5027052;28;19990;-77
2023/04/21 13:42:39;;;;;;;;;;;26.50;56.60;;;;;;5024409;28;19921;-77
2023/04/21 13:45:05;;;;;;;;;;;26.60;56.70;;;;;;5023737;28;21090;-77
2023/04/21 13:47:31;;;;;;;;;;;26.70;56.70;;;;;;5018946;28;19928;-77
2023/04/21 13:49:57;;;;;;;;;;;26.70;56.40;;;;;;5023748;28;19932;-77
2023/04/21 13:52:22;;;;;;;;;;;26.80;56.50;;;;;;4988797;28;19984;-76
2023/04/21 13:54:48;;;;;;;;;;;27.00;56.50;;;;;;4995640;28;21098;-76
2023/04/21 13:57:13;;;;;;;;;;;27.10;56.40;;;;;;5009718;28;19921;-77
2023/04/21 13:59:40;;;;;;;;;;;27.30;56.30;;;;;;5011174;28;20008;-76
2023/04/21 14:02:06;;;;;;;;;;;27.40;56.00;;;;;;5014941;28;19957;-76
2023/04/21 14:04:31;;;;;;;;;;;27.40;56.00;;;;;;5009162;28;19949;-76
2023/04/21 14:06:57;;;;;;;;;;;27.50;55.90;;;;;;5023844;28;19924;-77
2023/04/21 14:09:22;;;;;;;;;;;27.60;56.00;;;;;;5011198;28;19921;-78
2023/04/21 14:11:47;;;;;;;;;;;27.80;56.00;;;;;;5016413;28;19933;-77
2023/04/21 14:14:13;;;;;;;;;;;27.80;55.80;;;;;;5001219;28;20007;-77
2023/04/21 14:16:38;;;;;;;;;;;27.80;55.60;;;;;;5015372;28;19963;-76